createdAt,value
2018-06-27T00:01:17.523Z,12.30
2018-06-27T00:03:46.206Z,13.00
2018-06-27T00:06:14.923Z,13.40
2018-06-27T00:08:43.623Z,12.90
2018-06-27T00:11:12.352Z,13.53
2018-06-27T00:13:41.776Z,15.03
2018-06-27T00:16:10.449Z,14.30
2018-06-27T00:18:39.250Z,14.87
2018-06-27T00:21:08.272Z,12.83
2018-06-27T00:23:37.059Z,12.37
2018-06-27T00:26:05.742Z,13.10
2018-06-27T00:28:34.429Z,13.90
2018-06-27T00:31:03.219Z,13.40
2018-06-27T00:33:31.899Z,13.87
2018-06-27T00:36:00.584Z,13.50
2018-06-27T00:38:29.330Z,14.37
2018-06-27T00:40:58.068Z,14.00
2018-06-27T00:43:26.811Z,14.57
2018-06-27T00:45:55.521Z,14.83
2018-06-27T00:48:24.270Z,16.90
2018-06-27T00:50:53.018Z,15.43
2018-06-27T00:53:25.949Z,15.13
2018-06-27T00:55:54.704Z,13.43
2018-06-27T00:58:23.382Z,13.93
2018-06-27T01:00:52.117Z,14.10
2018-06-27T01:03:20.872Z,16.20
2018-06-27T01:05:49.545Z,16.70
2018-06-27T01:08:18.214Z,17.03
2018-06-27T01:10:46.963Z,17.30
2018-06-27T01:13:15.751Z,16.10
2018-06-27T01:15:44.668Z,17.43
2018-06-27T01:18:13.465Z,17.60
2018-06-27T01:20:42.229Z,17.80
2018-06-27T01:23:10.874Z,17.50
2018-06-27T01:25:39.604Z,17.10
2018-06-27T01:28:08.312Z,17.97
2018-06-27T01:30:37.043Z,18.37
2018-06-27T01:33:05.746Z,17.90
2018-06-27T01:35:34.514Z,17.27
2018-06-27T01:38:03.278Z,16.33
2018-06-27T01:40:32.072Z,16.57
2018-06-27T01:43:00.814Z,16.60
2018-06-27T01:45:29.487Z,16.60
2018-06-27T01:47:58.110Z,17.20
2018-06-27T01:50:26.836Z,16.50
2018-06-27T01:52:55.626Z,16.53
2018-06-27T01:55:24.557Z,14.57
2018-06-27T01:57:53.319Z,16.03
2018-06-27T02:00:22.030Z,16.47
2018-06-27T02:02:50.796Z,15.90
2018-06-27T02:05:19.549Z,16.10
2018-06-27T02:10:48.558Z,17.00
2018-06-27T02:13:17.306Z,16.50
2018-06-27T02:15:45.986Z,16.90
2018-06-27T02:18:14.762Z,16.30
2018-06-27T02:20:44.085Z,16.27
2018-06-27T02:23:13.638Z,17.17
2018-06-27T02:25:42.351Z,16.80
2018-06-27T02:28:11.690Z,18.47
2018-06-27T02:30:40.620Z,19.10
2018-06-27T02:33:09.445Z,17.50
2018-06-27T02:35:38.227Z,18.67
2018-06-27T02:38:06.929Z,18.00
2018-06-27T02:40:35.662Z,17.03
2018-06-27T02:43:04.418Z,18.87
2018-06-27T02:45:33.210Z,20.80
2018-06-27T02:48:01.888Z,20.47
2018-06-27T02:50:30.640Z,16.70
2018-06-27T02:52:59.353Z,20.37
2018-06-27T02:55:28.142Z,18.40
2018-06-27T02:57:56.968Z,16.93
2018-06-27T03:00:25.688Z,17.57
2018-06-27T03:02:54.378Z,17.80
2018-06-27T03:05:23.094Z,17.73
2018-06-27T03:07:51.787Z,19.43
2018-06-27T03:10:20.465Z,19.70
2018-06-27T03:12:49.169Z,19.57
2018-06-27T03:15:17.896Z,20.00
2018-06-27T03:17:47.563Z,19.00
2018-06-27T03:20:16.337Z,21.03
2018-06-27T03:22:45.438Z,20.00
2018-06-27T03:25:14.150Z,20.27
2018-06-27T03:27:43.062Z,19.17
2018-06-27T03:30:11.706Z,19.60
2018-06-27T03:35:48.018Z,20.20
2018-06-27T03:38:16.606Z,20.70
2018-06-27T03:40:45.378Z,19.30
2018-06-27T03:43:14.030Z,18.43
2018-06-27T03:45:42.854Z,20.20
2018-06-27T03:48:11.563Z,19.80
2018-06-27T03:50:40.290Z,19.63
2018-06-27T03:53:09.036Z,20.67
2018-06-27T03:55:37.688Z,19.80
2018-06-27T03:58:06.422Z,18.17
2018-06-27T04:00:35.146Z,19.03
2018-06-27T04:03:03.914Z,18.67
2018-06-27T04:05:32.665Z,21.20
2018-06-27T04:08:01.335Z,20.07
2018-06-27T04:10:30.056Z,20.00
2018-06-27T04:12:58.830Z,18.83
2018-06-27T04:15:27.508Z,20.53
2018-06-27T04:17:56.209Z,16.97
2018-06-27T04:20:24.950Z,17.27
2018-06-27T04:22:54.846Z,17.00
2018-06-27T04:25:23.572Z,15.80
2018-06-27T04:27:52.386Z,14.53
2018-06-27T04:30:21.119Z,13.73
2018-06-27T04:32:49.852Z,14.97
2018-06-27T04:35:18.555Z,15.70
2018-06-27T04:37:47.226Z,14.43
2018-06-27T04:40:15.944Z,14.77
2018-06-27T04:42:44.685Z,15.73
2018-06-27T04:45:13.395Z,16.10
2018-06-27T04:47:42.063Z,14.30
2018-06-27T04:50:13.007Z,12.83
2018-06-27T04:52:41.693Z,11.60
2018-06-27T04:55:10.475Z,11.70
2018-06-27T04:57:39.290Z,12.10
2018-06-27T05:00:08.467Z,11.80
2018-06-27T05:02:37.080Z,11.50
2018-06-27T05:05:05.923Z,11.20
2018-06-27T05:07:34.599Z,11.23
2018-06-27T05:10:03.324Z,11.07
2018-06-27T05:12:32.025Z,11.80
2018-06-27T05:15:00.725Z,14.70
2018-06-27T05:17:29.519Z,12.43
2018-06-27T05:19:58.496Z,12.43
2018-06-27T05:22:29.221Z,12.07
2018-06-27T05:24:58.072Z,13.20
2018-06-27T05:27:26.850Z,14.00
2018-06-27T05:29:55.560Z,14.13
2018-06-27T05:32:24.457Z,15.60
2018-06-27T05:34:53.212Z,18.30
2018-06-27T05:37:21.961Z,17.10
2018-06-27T05:39:50.270Z,17.67
2018-06-27T05:42:19.005Z,18.90
2018-06-27T05:44:47.691Z,18.50
2018-06-27T05:47:16.346Z,18.20
2018-06-27T05:49:44.960Z,18.00
2018-06-27T05:52:13.795Z,16.90
2018-06-27T05:54:42.514Z,18.20
2018-06-27T05:57:11.293Z,18.40
2018-06-27T05:59:39.954Z,17.80
2018-06-27T06:02:08.599Z,17.03
2018-06-27T06:07:37.348Z,18.23
2018-06-27T06:10:06.175Z,18.40
2018-06-27T06:12:34.887Z,18.43
2018-06-27T06:15:03.660Z,17.80
2018-06-27T06:17:32.458Z,18.47
2018-06-27T06:20:01.124Z,17.33
2018-06-27T06:22:29.797Z,17.67
2018-06-27T06:24:58.556Z,18.90
2018-06-27T06:27:27.434Z,17.83
2018-06-27T06:29:56.126Z,16.27
2018-06-27T06:32:24.774Z,16.47
2018-06-27T06:34:53.369Z,16.17
2018-06-27T06:37:22.081Z,17.60
2018-06-27T06:39:50.787Z,16.43
2018-06-27T06:42:19.487Z,15.40
2018-06-27T06:44:48.199Z,13.93
2018-06-27T06:47:16.792Z,15.30
2018-06-27T06:49:45.647Z,15.60
2018-06-27T06:52:14.425Z,15.30
2018-06-27T06:54:43.035Z,15.30
2018-06-27T06:57:11.795Z,15.03
2018-06-27T06:59:40.555Z,14.10
2018-06-27T07:02:09.222Z,14.57
2018-06-27T07:04:37.962Z,14.13
2018-06-27T07:07:06.638Z,14.60
2018-06-27T07:09:35.295Z,14.00
2018-06-27T07:12:04.033Z,13.17
2018-06-27T07:14:32.751Z,13.43
2018-06-27T07:17:01.502Z,14.47
2018-06-27T07:19:30.318Z,13.53
2018-06-27T07:21:58.606Z,12.63
2018-06-27T07:24:27.274Z,12.43
2018-06-27T07:26:56.008Z,11.83
2018-06-27T07:29:24.720Z,10.97
2018-06-27T07:31:53.376Z,11.33
2018-06-27T07:34:22.026Z,11.07
2018-06-27T07:36:50.652Z,10.97
2018-06-27T07:39:19.328Z,11.80
2018-06-27T07:41:47.941Z,10.30
2018-06-27T07:44:16.638Z,9.93
2018-06-27T07:46:45.391Z,11.50
2018-06-27T07:49:14.123Z,10.57
2018-06-27T07:51:42.902Z,9.87
2018-06-27T07:54:11.684Z,9.80
2018-06-27T07:56:40.415Z,9.83
2018-06-27T07:59:09.141Z,9.30
2018-06-27T08:01:37.896Z,8.40
2018-06-27T08:04:06.798Z,7.60
2018-06-27T08:06:39.464Z,7.90
2018-06-27T08:09:09.469Z,7.30
2018-06-27T08:11:38.359Z,7.60
2018-06-27T08:14:07.546Z,6.40
2018-06-27T08:16:36.358Z,6.47
2018-06-27T08:19:11.398Z,6.40
2018-06-27T08:21:40.040Z,5.60
2018-06-27T08:24:08.725Z,5.43
2018-06-27T08:26:37.427Z,5.67
2018-06-27T08:29:06.127Z,6.17
2018-06-27T08:31:34.826Z,6.73
2018-06-27T08:34:03.646Z,5.10
2018-06-27T08:36:32.296Z,5.30
2018-06-27T08:39:00.998Z,5.00
2018-06-27T08:41:29.656Z,5.07
2018-06-27T08:47:13.295Z,4.80
2018-06-27T08:49:42.081Z,5.10
2018-06-27T08:52:10.751Z,5.23
2018-06-27T08:54:44.854Z,4.60
2018-06-27T08:57:14.228Z,4.30
2018-06-27T08:59:43.014Z,4.60
2018-06-27T09:02:11.706Z,4.63
2018-06-27T09:04:40.734Z,5.47
2018-06-27T09:07:09.802Z,5.10
2018-06-27T09:09:38.722Z,4.77
2018-06-27T09:12:07.458Z,4.73
2018-06-27T09:14:36.124Z,4.23
2018-06-27T09:17:04.483Z,4.27
2018-06-27T09:19:32.831Z,3.87
2018-06-27T09:22:01.616Z,3.57
2018-06-27T09:24:30.228Z,3.30
2018-06-27T09:26:58.863Z,4.20
2018-06-27T09:29:27.522Z,4.10
2018-06-27T09:31:56.103Z,3.67
2018-06-27T09:34:24.839Z,3.70
2018-06-27T09:36:53.576Z,3.40
2018-06-27T09:39:22.243Z,3.23
2018-06-27T09:41:51.041Z,3.97
2018-06-27T09:44:19.678Z,3.73
2018-06-27T09:46:48.429Z,3.83
2018-06-27T09:49:17.175Z,3.70
2018-06-27T09:51:45.864Z,2.70
2018-06-27T09:54:14.627Z,3.87
2018-06-27T09:56:43.251Z,3.30
2018-06-27T09:59:11.590Z,4.20
2018-06-27T10:01:40.289Z,4.10
2018-06-27T10:04:09.091Z,4.63
2018-06-27T10:06:37.746Z,3.90
2018-06-27T10:09:08.449Z,4.30
2018-06-27T10:11:37.123Z,3.90
2018-06-27T10:14:05.441Z,4.40
2018-06-27T10:16:34.381Z,4.30
2018-06-27T10:19:02.688Z,4.00
2018-06-27T10:21:31.712Z,4.67
2018-06-27T10:24:00.328Z,4.30
2018-06-27T10:26:29.011Z,4.30
2018-06-27T10:28:57.805Z,4.43
2018-06-27T10:31:26.498Z,4.70
2018-06-27T10:33:55.202Z,4.13
2018-06-27T10:36:23.858Z,3.97
2018-06-27T10:38:52.108Z,4.60
2018-06-27T10:41:20.802Z,4.13
2018-06-27T10:43:49.487Z,4.70
2018-06-27T10:46:18.109Z,4.60
2018-06-27T10:48:46.721Z,5.13
2018-06-27T10:51:15.427Z,5.10
2018-06-27T10:53:44.099Z,6.50
2018-06-27T10:56:12.900Z,5.20
2018-06-27T10:58:41.525Z,5.60
2018-06-27T11:01:09.829Z,4.80
2018-06-27T11:03:38.515Z,4.00
2018-06-27T11:06:07.284Z,3.90
2018-06-27T11:08:35.946Z,3.80
2018-06-27T11:11:04.654Z,4.07
2018-06-27T11:13:33.367Z,3.90
2018-06-27T11:16:02.103Z,4.37
2018-06-27T11:18:30.870Z,3.60
2018-06-27T11:20:59.607Z,3.80
2018-06-27T11:23:27.993Z,3.57
2018-06-27T11:25:56.681Z,3.50
2018-06-27T11:28:25.413Z,3.60
2018-06-27T11:30:54.170Z,4.17
2018-06-27T11:33:22.926Z,3.77
2018-06-27T11:35:51.667Z,3.43
2018-06-27T11:38:20.430Z,3.60
2018-06-27T11:40:49.108Z,3.60
2018-06-27T11:43:17.933Z,3.40
2018-06-27T11:45:46.588Z,3.97
2018-06-27T11:48:15.283Z,3.50
2018-06-27T11:50:48.523Z,3.20
2018-06-27T11:53:17.319Z,4.00
2018-06-27T11:55:45.931Z,3.70
2018-06-27T11:58:14.630Z,3.50
2018-06-27T12:00:43.351Z,3.70
2018-06-27T12:03:12.094Z,3.80
2018-06-27T12:05:40.855Z,4.13
2018-06-27T12:08:09.518Z,3.70
2018-06-27T12:10:38.203Z,3.43
2018-06-27T12:13:06.970Z,3.07
2018-06-27T12:15:35.666Z,3.13
2018-06-27T12:18:04.363Z,2.63
2018-06-27T12:20:33.052Z,2.70
2018-06-27T12:23:01.742Z,3.17
2018-06-27T12:25:30.355Z,2.70
2018-06-27T12:27:58.677Z,3.57
2018-06-27T12:30:27.369Z,3.13
2018-06-27T12:32:56.069Z,3.07
2018-06-27T12:35:24.799Z,3.17
2018-06-27T12:37:53.413Z,2.83
2018-06-27T12:40:22.104Z,2.73
2018-06-27T12:42:50.772Z,2.47
2018-06-27T12:45:19.421Z,2.70
2018-06-27T12:47:47.672Z,2.33
2018-06-27T12:50:16.489Z,2.40
2018-06-27T12:52:44.999Z,2.80
2018-06-27T12:55:14.073Z,2.40
2018-06-27T12:57:42.730Z,2.60
2018-06-27T13:00:11.863Z,2.53
2018-06-27T13:02:40.546Z,2.70
2018-06-27T13:05:09.800Z,2.20
2018-06-27T13:07:38.637Z,1.87
2018-06-27T13:10:08.751Z,1.87
2018-06-27T13:12:37.504Z,2.00
2018-06-27T13:15:06.743Z,2.00
2018-06-27T13:17:35.691Z,1.93
2018-06-27T13:20:04.991Z,2.00
2018-06-27T13:22:33.707Z,1.87
2018-06-27T13:25:02.308Z,2.03
2018-06-27T13:27:31.078Z,1.87
2018-06-27T13:29:59.739Z,2.00
2018-06-27T13:32:28.447Z,2.33
2018-06-27T13:34:56.996Z,1.80
2018-06-27T13:37:25.620Z,1.80
2018-06-27T13:39:54.373Z,1.70
2018-06-27T13:42:23.064Z,1.77
2018-06-27T13:44:51.766Z,1.77
2018-06-27T13:53:29.892Z,1.87
2018-06-27T13:55:58.628Z,1.60
2018-06-27T13:58:27.335Z,1.80
2018-06-27T14:00:56.025Z,2.00
2018-06-27T14:03:24.676Z,1.90
2018-06-27T14:05:53.306Z,1.77
2018-06-27T14:08:22.039Z,1.67
2018-06-27T14:10:50.732Z,2.10
2018-06-27T14:13:19.573Z,1.60
2018-06-27T14:15:48.240Z,1.57
2018-06-27T14:18:17.057Z,1.53
2018-06-27T14:20:45.839Z,1.50
2018-06-27T14:23:14.433Z,1.67
2018-06-27T14:25:43.224Z,1.67
2018-06-27T14:28:11.840Z,1.67
2018-06-27T14:30:40.611Z,1.73
2018-06-27T14:33:09.460Z,1.73
2018-06-27T14:35:38.130Z,1.70
2018-06-27T14:38:06.814Z,1.77
2018-06-27T14:40:35.539Z,1.60
2018-06-27T14:43:12.392Z,1.90
2018-06-27T14:45:41.160Z,1.93
2018-06-27T14:48:09.865Z,1.90
2018-06-27T14:50:38.641Z,1.80
2018-06-27T14:53:07.470Z,1.50
2018-06-27T14:55:36.199Z,1.80
2018-06-27T15:04:06.398Z,1.90
2018-06-27T15:06:45.970Z,2.17
2018-06-27T15:09:14.658Z,1.90
2018-06-27T15:11:43.358Z,1.70
2018-06-27T15:14:11.931Z,2.00
2018-06-27T15:19:45.091Z,1.80
2018-06-27T15:22:13.839Z,1.97
2018-06-27T15:24:42.571Z,2.23
2018-06-27T15:33:14.208Z,1.77
2018-06-27T15:35:42.443Z,1.90
2018-06-27T15:38:11.102Z,1.80
2018-06-27T15:40:39.719Z,1.60
2018-06-27T15:43:08.527Z,1.90
2018-06-27T15:45:37.244Z,1.93
2018-06-27T15:48:06.060Z,2.87
2018-06-27T15:50:57.087Z,1.90
2018-06-27T15:53:25.767Z,1.60
2018-06-27T15:55:54.513Z,1.60
2018-06-27T15:58:23.205Z,2.00
2018-06-27T16:00:51.931Z,1.80
2018-06-27T16:03:20.676Z,1.60
2018-06-27T16:06:01.377Z,2.00
2018-06-27T16:08:41.441Z,2.20
2018-06-27T16:11:10.218Z,2.30
2018-06-27T16:13:38.998Z,1.90
2018-06-27T16:16:07.699Z,2.00
2018-06-27T16:18:36.426Z,2.07
2018-06-27T16:21:08.194Z,1.90
2018-06-27T16:23:36.895Z,2.00
2018-06-27T16:26:05.602Z,1.67
2018-06-27T16:28:34.310Z,2.00
2018-06-27T16:31:03.011Z,1.80
2018-06-27T16:33:31.673Z,1.73
2018-06-27T16:36:00.415Z,1.60
2018-06-27T16:38:29.123Z,1.80
2018-06-27T16:40:57.816Z,2.10
2018-06-27T16:43:26.513Z,1.57
2018-06-27T16:45:55.290Z,1.80
2018-06-27T16:48:23.923Z,1.87
2018-06-27T16:50:52.680Z,1.87
2018-06-27T16:53:21.319Z,2.00
2018-06-27T16:55:49.933Z,2.00
2018-06-27T16:58:18.590Z,2.00
2018-06-27T17:06:43.876Z,2.10
2018-06-27T17:12:06.327Z,2.10
2018-06-27T17:14:35.048Z,2.07
2018-06-27T17:23:00.102Z,2.50
2018-06-27T17:25:28.744Z,2.10
2018-06-27T17:27:57.402Z,2.10
2018-06-27T17:30:26.050Z,2.40
2018-06-27T17:32:54.719Z,2.20
2018-06-27T17:35:23.599Z,1.80
2018-06-27T17:37:52.295Z,1.90
2018-06-27T17:49:06.701Z,2.23
2018-06-27T17:51:35.412Z,1.90
2018-06-27T17:54:04.150Z,2.23
2018-06-27T17:56:32.799Z,2.30
2018-06-27T17:59:01.525Z,2.00
2018-06-27T18:01:30.283Z,2.13
2018-06-27T18:03:59.038Z,2.07
2018-06-27T18:06:27.755Z,2.00
2018-06-27T18:08:57.196Z,2.20
2018-06-27T18:11:44.065Z,1.93
2018-06-27T18:14:12.944Z,2.23
2018-06-27T18:16:41.821Z,2.40
2018-06-27T18:19:10.630Z,2.10
2018-06-27T18:21:39.295Z,2.10
2018-06-27T18:24:08.021Z,2.10
2018-06-27T18:26:36.708Z,1.90
2018-06-27T18:29:05.869Z,2.20
2018-06-27T18:31:36.670Z,2.20
2018-06-27T18:34:05.339Z,2.40
2018-06-27T18:36:34.132Z,2.30
2018-06-27T18:39:02.922Z,2.30
2018-06-27T18:41:31.652Z,2.47
2018-06-27T18:44:00.335Z,2.40
2018-06-27T18:46:28.993Z,2.30
2018-06-27T18:48:57.852Z,2.60
2018-06-27T18:51:26.568Z,2.50
2018-06-27T18:53:55.355Z,2.43
2018-06-27T18:56:24.194Z,2.50
2018-06-27T18:58:54.237Z,2.60
2018-06-27T19:01:22.934Z,2.70
2018-06-27T19:03:51.702Z,2.50
2018-06-27T19:06:20.888Z,2.53
2018-06-27T19:08:49.726Z,2.57
2018-06-27T19:11:18.560Z,2.60
2018-06-27T19:13:47.256Z,2.70
2018-06-27T19:16:16.007Z,2.70
2018-06-27T19:18:44.715Z,2.70
2018-06-27T19:21:13.060Z,2.60
2018-06-27T19:23:41.827Z,2.90
2018-06-27T19:26:10.577Z,2.80
2018-06-27T19:28:39.386Z,2.50
2018-06-27T19:31:08.052Z,3.07
2018-06-27T19:33:36.780Z,2.50
2018-06-27T19:36:05.566Z,2.97
2018-06-27T19:38:42.623Z,2.80
2018-06-27T19:41:11.320Z,2.70
2018-06-27T19:43:40.005Z,2.60
2018-06-27T19:46:22.396Z,2.70
2018-06-27T19:48:51.169Z,2.80
2018-06-27T19:51:24.765Z,2.63
2018-06-27T19:53:53.413Z,2.13
2018-06-27T19:56:22.387Z,2.60
2018-06-27T19:58:51.070Z,2.77
2018-06-27T20:01:26.575Z,2.50
2018-06-27T20:03:55.331Z,2.43
2018-06-27T20:06:24.000Z,2.50
2018-06-27T20:08:52.727Z,2.17
2018-06-27T20:11:21.402Z,2.50
2018-06-27T20:13:50.135Z,2.40
2018-06-27T20:16:18.861Z,2.37
2018-06-27T20:18:47.653Z,2.37
2018-06-27T20:21:16.385Z,2.50
2018-06-27T20:23:44.992Z,2.50
2018-06-27T20:26:13.653Z,2.73
2018-06-27T20:28:42.374Z,2.70
2018-06-27T20:31:11.157Z,2.87
2018-06-27T20:33:39.903Z,3.10
2018-06-27T20:36:08.575Z,3.27
2018-06-27T20:38:37.219Z,3.53
2018-06-27T20:41:05.945Z,3.53
2018-06-27T20:43:34.648Z,2.80
2018-06-27T20:46:03.311Z,2.70
2018-06-27T20:48:31.988Z,2.30
2018-06-27T20:51:00.703Z,2.73
2018-06-27T20:53:29.589Z,2.80
2018-06-27T20:55:58.302Z,2.63
2018-06-27T20:58:27.068Z,2.67
2018-06-27T21:00:55.795Z,2.50
2018-06-27T21:03:24.558Z,2.90
2018-06-27T21:05:53.296Z,2.70
2018-06-27T21:08:22.106Z,3.03
2018-06-27T21:10:50.792Z,2.50
2018-06-27T21:13:19.549Z,2.30
2018-06-27T21:15:48.145Z,2.43
2018-06-27T21:18:16.779Z,2.70
2018-06-27T21:20:45.416Z,2.80
2018-06-27T21:23:14.140Z,2.60
2018-06-27T21:25:42.877Z,2.60
2018-06-27T21:28:11.532Z,2.43
2018-06-27T21:30:40.222Z,2.50
2018-06-27T21:33:08.904Z,2.53
2018-06-27T21:35:37.615Z,2.53
2018-06-27T21:38:06.377Z,2.40
2018-06-27T21:40:35.074Z,2.70
2018-06-27T21:43:03.989Z,2.93
2018-06-27T21:45:32.710Z,2.50
2018-06-27T21:48:01.282Z,2.60
2018-06-27T21:50:29.987Z,2.60
2018-06-27T21:52:58.614Z,2.80
2018-06-27T21:55:27.327Z,2.73
2018-06-27T21:57:55.947Z,2.87
2018-06-27T22:00:26.778Z,2.57
2018-06-27T22:02:55.425Z,2.87
2018-06-27T22:05:24.086Z,2.60
2018-06-27T22:07:52.762Z,2.87
2018-06-27T22:10:21.500Z,3.20
2018-06-27T22:12:50.195Z,2.90
2018-06-27T22:15:18.848Z,2.90
2018-06-27T22:17:48.310Z,2.80
2018-06-27T22:20:17.029Z,2.63
2018-06-27T22:22:45.651Z,2.80
2018-06-27T22:25:14.274Z,2.87
2018-06-27T22:27:42.890Z,2.80
2018-06-27T22:30:11.455Z,2.60
2018-06-27T22:32:40.190Z,2.90
2018-06-27T22:35:08.788Z,2.93
2018-06-27T22:37:37.507Z,2.60
2018-06-27T22:40:06.250Z,2.67
2018-06-27T22:42:34.917Z,2.90
2018-06-27T22:45:03.566Z,3.00
2018-06-27T22:47:32.177Z,2.90
2018-06-27T22:50:00.806Z,2.87
2018-06-27T22:52:29.505Z,2.80
2018-06-27T22:54:58.136Z,2.90
2018-06-27T22:57:38.105Z,3.10
2018-06-27T23:00:07.291Z,3.17
2018-06-27T23:02:35.991Z,2.83
2018-06-27T23:05:04.783Z,3.10
2018-06-27T23:07:33.444Z,2.93
2018-06-27T23:10:02.131Z,2.67
2018-06-27T23:12:30.836Z,2.60
2018-06-27T23:14:59.531Z,2.77
2018-06-27T23:17:28.150Z,2.57
2018-06-27T23:19:56.904Z,2.70
2018-06-27T23:22:36.830Z,2.70
2018-06-27T23:25:05.524Z,2.80
2018-06-27T23:27:34.122Z,2.43
2018-06-27T23:30:02.827Z,2.63
2018-06-27T23:32:31.554Z,2.90
2018-06-27T23:35:00.302Z,2.60
2018-06-27T23:37:29.035Z,2.50
2018-06-27T23:39:57.670Z,3.10
2018-06-27T23:42:26.375Z,2.80
2018-06-27T23:44:55.037Z,2.80
2018-06-27T23:47:23.770Z,3.03
2018-06-27T23:49:52.372Z,3.00
2018-06-27T23:52:21.081Z,3.17
2018-06-27T23:54:49.803Z,3.13
2018-06-27T23:57:18.561Z,3.10
2018-06-27T23:59:47.170Z,3.20
